sensor_id;sensor_type;location;lat;lon;timestamp;P1;durP1;ratioP1;P2;durP2;ratioP2
11427;SDS011;5770;44.504;11.346;2023-11-21T00:02:04;52.45;;;36.40;;
11427;SDS011;5770;44.504;11.346;2023-11-21T00:04:32;55.65;;;37.17;;
11427;SDS011;5770;44.504;11.346;2023-11-21T00:06:59;50.70;;;35.70;;
11427;SDS011;5770;44.504;11.346;2023-11-21T00:09:26;52.50;;;37.17;;
11427;SDS011;5770;44.504;11.346;2023-11-21T00:11:53;53.45;;;34.80;;
11427;SDS011;5770;44.504;11.346;2023-11-21T00:14:20;53.95;;;36.92;;
11427;SDS011;5770;44.504;11.346;2023-11-21T00:16:49;53.53;;;36.28;;
11427;SDS011;5770;44.504;11.346;2023-11-21T00:19:16;52.22;;;35.42;;
11427;SDS011;5770;44.504;11.346;2023-11-21T00:21:43;53.72;;;38.08;;
11427;SDS011;5770;44.504;11.346;2023-11-21T00:24:10;50.28;;;36.13;;
11427;SDS011;5770;44.504;11.346;2023-11-21T00:26:38;51.03;;;36.97;;
11427;SDS011;5770;44.504;11.346;2023-11-21T00:29:06;52.88;;;35.95;;
11427;SDS011;5770;44.504;11.346;2023-11-21T00:31:33;55.40;;;37.83;;
11427;SDS011;5770;44.504;11.346;2023-11-21T00:34:03;50.70;;;36.95;;
11427;SDS011;5770;44.504;11.346;2023-11-21T00:36:30;49.55;;;38.00;;
11427;SDS011;5770;44.504;11.346;2023-11-21T00:38:58;44.00;;;34.83;;
11427;SDS011;5770;44.504;11.346;2023-11-21T00:41:25;48.80;;;36.90;;
11427;SDS011;5770;44.504;11.346;2023-11-21T00:43:53;47.13;;;36.03;;
11427;SDS011;5770;44.504;11.346;2023-11-21T00:46:20;46.47;;;36.75;;
11427;SDS011;5770;44.504;11.346;2023-11-21T00:48:49;48.25;;;36.15;;
11427;SDS011;5770;44.504;11.346;2023-11-21T00:51:18;52.35;;;36.42;;
11427;SDS011;5770;44.504;11.346;2023-11-21T00:53:47;50.97;;;37.42;;
11427;SDS011;5770;44.504;11.346;2023-11-21T00:56:18;52.83;;;38.15;;
11427;SDS011;5770;44.504;11.346;2023-11-21T00:58:45;49.58;;;36.33;;
11427;SDS011;5770;44.504;11.346;2023-11-21T01:01:15;46.15;;;37.55;;
11427;SDS011;5770;44.504;11.346;2023-11-21T01:03:42;46.35;;;36.85;;
11427;SDS011;5770;44.504;11.346;2023-11-21T01:06:11;45.15;;;36.15;;
11427;SDS011;5770;44.504;11.346;2023-11-21T01:08:39;45.63;;;36.58;;
11427;SDS011;5770;44.504;11.346;2023-11-21T01:11:07;47.55;;;36.80;;
11427;SDS011;5770;44.504;11.346;2023-11-21T01:13:35;47.00;;;37.72;;
11427;SDS011;5770;44.504;11.346;2023-11-21T01:16:02;47.10;;;38.22;;
11427;SDS011;5770;44.504;11.346;2023-11-21T01:18:31;48.85;;;39.17;;
11427;SDS011;5770;44.504;11.346;2023-11-21T01:20:58;45.38;;;38.13;;
11427;SDS011;5770;44.504;11.346;2023-11-21T01:23:25;47.72;;;38.55;;
11427;SDS011;5770;44.504;11.346;2023-11-21T01:25:55;47.35;;;39.00;;
11427;SDS011;5770;44.504;11.346;2023-11-21T01:28:22;48.30;;;39.75;;
11427;SDS011;5770;44.504;11.346;2023-11-21T01:30:50;52.80;;;39.35;;
11427;SDS011;5770;44.504;11.346;2023-11-21T01:33:18;49.83;;;40.55;;
11427;SDS011;5770;44.504;11.346;2023-11-21T01:35:45;50.30;;;39.72;;
11427;SDS011;5770;44.504;11.346;2023-11-21T01:38:12;50.47;;;39.92;;
11427;SDS011;5770;44.504;11.346;2023-11-21T01:40:40;52.25;;;40.45;;
11427;SDS011;5770;44.504;11.346;2023-11-21T01:43:08;51.08;;;41.63;;
11427;SDS011;5770;44.504;11.346;2023-11-21T01:45:35;53.50;;;42.70;;
11427;SDS011;5770;44.504;11.346;2023-11-21T01:48:03;53.85;;;40.35;;
11427;SDS011;5770;44.504;11.346;2023-11-21T01:50:32;49.15;;;39.33;;
11427;SDS011;5770;44.504;11.346;2023-11-21T01:52:59;48.08;;;39.63;;
11427;SDS011;5770;44.504;11.346;2023-11-21T01:55:28;53.22;;;39.63;;
11427;SDS011;5770;44.504;11.346;2023-11-21T01:57:56;50.65;;;39.78;;
11427;SDS011;5770;44.504;11.346;2023-11-21T02:00:24;51.55;;;38.65;;
11427;SDS011;5770;44.504;11.346;2023-11-21T02:02:53;51.95;;;38.13;;
11427;SDS011;5770;44.504;11.346;2023-11-21T02:05:20;49.90;;;37.55;;
11427;SDS011;5770;44.504;11.346;2023-11-21T02:07:47;52.72;;;38.95;;
11427;SDS011;5770;44.504;11.346;2023-11-21T02:10:15;52.63;;;39.70;;
11427;SDS011;5770;44.504;11.346;2023-11-21T02:12:44;50.88;;;39.38;;
11427;SDS011;5770;44.504;11.346;2023-11-21T02:15:12;55.90;;;39.22;;
11427;SDS011;5770;44.504;11.346;2023-11-21T02:17:43;52.47;;;39.78;;
11427;SDS011;5770;44.504;11.346;2023-11-21T02:20:11;54.75;;;40.40;;
11427;SDS011;5770;44.504;11.346;2023-11-21T02:22:40;52.08;;;38.95;;
11427;SDS011;5770;44.504;11.346;2023-11-21T02:25:09;52.75;;;39.22;;
11427;SDS011;5770;44.504;11.346;2023-11-21T02:27:37;58.50;;;38.83;;
11427;SDS011;5770;44.504;11.346;2023-11-21T02:30:04;51.35;;;38.70;;
11427;SDS011;5770;44.504;11.346;2023-11-21T02:32:33;53.25;;;37.78;;
11427;SDS011;5770;44.504;11.346;2023-11-21T02:35:00;52.08;;;37.53;;
11427;SDS011;5770;44.504;11.346;2023-11-21T02:37:27;50.92;;;38.20;;
11427;SDS011;5770;44.504;11.346;2023-11-21T02:39:55;54.50;;;37.35;;
11427;SDS011;5770;44.504;11.346;2023-11-21T02:42:24;57.15;;;38.25;;
11427;SDS011;5770;44.504;11.346;2023-11-21T02:44:51;58.97;;;38.35;;
11427;SDS011;5770;44.504;11.346;2023-11-21T02:47:18;53.45;;;38.15;;
11427;SDS011;5770;44.504;11.346;2023-11-21T02:49:45;56.20;;;37.97;;
11427;SDS011;5770;44.504;11.346;2023-11-21T02:52:12;57.13;;;38.05;;
11427;SDS011;5770;44.504;11.346;2023-11-21T02:54:40;55.10;;;37.80;;
11427;SDS011;5770;44.504;11.346;2023-11-21T02:57:06;58.80;;;37.88;;
11427;SDS011;5770;44.504;11.346;2023-11-21T02:59:35;53.83;;;38.58;;
11427;SDS011;5770;44.504;11.346;2023-11-21T03:02:02;52.83;;;38.45;;
11427;SDS011;5770;44.504;11.346;2023-11-21T03:04:33;51.45;;;38.38;;
11427;SDS011;5770;44.504;11.346;2023-11-21T03:07:00;56.80;;;38.72;;
11427;SDS011;5770;44.504;11.346;2023-11-21T03:09:27;54.70;;;39.33;;
11427;SDS011;5770;44.504;11.346;2023-11-21T03:11:54;51.35;;;38.50;;
11427;SDS011;5770;44.504;11.346;2023-11-21T03:14:22;48.33;;;37.78;;
11427;SDS011;5770;44.504;11.346;2023-11-21T03:16:50;50.22;;;40.08;;
11427;SDS011;5770;44.504;11.346;2023-11-21T03:19:18;53.53;;;39.83;;
11427;SDS011;5770;44.504;11.346;2023-11-21T03:21:45;54.65;;;39.58;;
11427;SDS011;5770;44.504;11.346;2023-11-21T03:24:13;50.42;;;38.53;;
11427;SDS011;5770;44.504;11.346;2023-11-21T03:26:44;51.00;;;40.13;;
11427;SDS011;5770;44.504;11.346;2023-11-21T03:29:11;52.92;;;40.10;;
11427;SDS011;5770;44.504;11.346;2023-11-21T03:31:39;62.75;;;41.47;;
11427;SDS011;5770;44.504;11.346;2023-11-21T03:34:09;56.40;;;41.55;;
11427;SDS011;5770;44.504;11.346;2023-11-21T03:36:36;58.97;;;41.72;;
11427;SDS011;5770;44.504;11.346;2023-11-21T03:39:03;57.22;;;41.50;;
11427;SDS011;5770;44.504;11.346;2023-11-21T03:41:30;65.25;;;41.70;;
11427;SDS011;5770;44.504;11.346;2023-11-21T03:43:59;53.53;;;41.03;;
11427;SDS011;5770;44.504;11.346;2023-11-21T03:46:26;53.85;;;39.10;;
11427;SDS011;5770;44.504;11.346;2023-11-21T03:48:53;55.17;;;39.50;;
11427;SDS011;5770;44.504;11.346;2023-11-21T03:51:22;51.60;;;38.35;;
11427;SDS011;5770;44.504;11.346;2023-11-21T03:53:49;57.08;;;39.08;;
11427;SDS011;5770;44.504;11.346;2023-11-21T03:56:16;54.72;;;40.05;;
11427;SDS011;5770;44.504;11.346;2023-11-21T03:58:43;54.83;;;41.63;;
11427;SDS011;5770;44.504;11.346;2023-11-21T04:01:10;54.80;;;39.95;;
11427;SDS011;5770;44.504;11.346;2023-11-21T04:03:38;55.50;;;41.05;;
11427;SDS011;5770;44.504;11.346;2023-11-21T04:06:05;51.85;;;41.53;;
11427;SDS011;5770;44.504;11.346;2023-11-21T04:08:34;55.13;;;42.10;;
11427;SDS011;5770;44.504;11.346;2023-11-21T04:11:01;54.35;;;41.35;;
11427;SDS011;5770;44.504;11.346;2023-11-21T04:13:29;51.72;;;40.85;;
11427;SDS011;5770;44.504;11.346;2023-11-21T04:15:56;55.15;;;43.95;;
11427;SDS011;5770;44.504;11.346;2023-11-21T04:18:23;61.08;;;43.72;;
11427;SDS011;5770;44.504;11.346;2023-11-21T04:20:50;59.13;;;44.03;;
11427;SDS011;5770;44.504;11.346;2023-11-21T04:23:18;59.85;;;43.33;;
11427;SDS011;5770;44.504;11.346;2023-11-21T04:25:46;58.03;;;44.00;;
11427;SDS011;5770;44.504;11.346;2023-11-21T04:28:13;62.30;;;45.75;;
11427;SDS011;5770;44.504;11.346;2023-11-21T04:30:40;57.83;;;43.08;;
11427;SDS011;5770;44.504;11.346;2023-11-21T04:33:07;57.20;;;43.00;;
11427;SDS011;5770;44.504;11.346;2023-11-21T04:35:35;60.95;;;44.78;;
11427;SDS011;5770;44.504;11.346;2023-11-21T04:38:02;58.30;;;44.42;;
11427;SDS011;5770;44.504;11.346;2023-11-21T04:40:29;60.47;;;44.95;;
11427;SDS011;5770;44.504;11.346;2023-11-21T04:42:57;63.28;;;45.60;;
11427;SDS011;5770;44.504;11.346;2023-11-21T04:45:24;54.38;;;43.75;;
11427;SDS011;5770;44.504;11.346;2023-11-21T04:47:52;54.13;;;41.95;;
11427;SDS011;5770;44.504;11.346;2023-11-21T04:50:19;58.58;;;43.47;;
11427;SDS011;5770;44.504;11.346;2023-11-21T04:52:46;51.95;;;39.65;;
11427;SDS011;5770;44.504;11.346;2023-11-21T04:55:13;48.17;;;39.45;;
11427;SDS011;5770;44.504;11.346;2023-11-21T04:57:40;48.38;;;40.28;;
11427;SDS011;5770;44.504;11.346;2023-11-21T05:00:10;50.17;;;40.17;;
11427;SDS011;5770;44.504;11.346;2023-11-21T05:02:38;51.47;;;39.97;;
11427;SDS011;5770;44.504;11.346;2023-11-21T05:05:05;49.67;;;37.88;;
11427;SDS011;5770;44.504;11.346;2023-11-21T05:07:35;53.13;;;39.83;;
11427;SDS011;5770;44.504;11.346;2023-11-21T05:10:03;48.00;;;39.60;;
11427;SDS011;5770;44.504;11.346;2023-11-21T05:12:33;46.42;;;39.17;;
11427;SDS011;5770;44.504;11.346;2023-11-21T05:15:01;50.13;;;40.00;;
11427;SDS011;5770;44.504;11.346;2023-11-21T05:17:34;52.15;;;40.42;;
11427;SDS011;5770;44.504;11.346;2023-11-21T05:20:01;44.47;;;38.42;;
11427;SDS011;5770;44.504;11.346;2023-11-21T05:22:29;46.90;;;38.20;;
11427;SDS011;5770;44.504;11.346;2023-11-21T05:24:58;44.92;;;37.75;;
11427;SDS011;5770;44.504;11.346;2023-11-21T05:27:25;48.67;;;39.00;;
11427;SDS011;5770;44.504;11.346;2023-11-21T05:29:53;49.10;;;38.78;;
11427;SDS011;5770;44.504;11.346;2023-11-21T05:32:20;47.47;;;38.22;;
11427;SDS011;5770;44.504;11.346;2023-11-21T05:34:49;52.10;;;39.38;;
11427;SDS011;5770;44.504;11.346;2023-11-21T05:37:16;46.95;;;38.90;;
11427;SDS011;5770;44.504;11.346;2023-11-21T05:39:46;46.63;;;37.88;;
11427;SDS011;5770;44.504;11.346;2023-11-21T05:42:13;47.92;;;38.17;;
11427;SDS011;5770;44.504;11.346;2023-11-21T05:44:42;47.60;;;37.20;;
11427;SDS011;5770;44.504;11.346;2023-11-21T05:47:09;49.55;;;39.17;;
11427;SDS011;5770;44.504;11.346;2023-11-21T05:49:38;45.25;;;38.88;;
11427;SDS011;5770;44.504;11.346;2023-11-21T05:52:07;48.40;;;40.25;;
11427;SDS011;5770;44.504;11.346;2023-11-21T05:54:35;45.40;;;38.80;;
11427;SDS011;5770;44.504;11.346;2023-11-21T05:57:02;48.15;;;38.90;;
11427;SDS011;5770;44.504;11.346;2023-11-21T05:59:30;44.35;;;37.88;;
11427;SDS011;5770;44.504;11.346;2023-11-21T06:01:57;48.08;;;39.03;;
11427;SDS011;5770;44.504;11.346;2023-11-21T06:04:24;46.47;;;38.38;;
11427;SDS011;5770;44.504;11.346;2023-11-21T06:06:52;57.63;;;40.22;;
11427;SDS011;5770;44.504;11.346;2023-11-21T06:09:21;48.83;;;39.95;;
11427;SDS011;5770;44.504;11.346;2023-11-21T06:11:49;50.58;;;39.75;;
11427;SDS011;5770;44.504;11.346;2023-11-21T06:14:16;48.10;;;38.97;;
11427;SDS011;5770;44.504;11.346;2023-11-21T06:16:44;49.40;;;39.95;;
11427;SDS011;5770;44.504;11.346;2023-11-21T06:19:11;54.80;;;41.10;;
11427;SDS011;5770;44.504;11.346;2023-11-21T06:21:38;47.40;;;40.03;;
11427;SDS011;5770;44.504;11.346;2023-11-21T06:24:06;55.03;;;40.83;;
11427;SDS011;5770;44.504;11.346;2023-11-21T06:26:34;50.47;;;42.08;;
11427;SDS011;5770;44.504;11.346;2023-11-21T06:29:01;51.25;;;41.92;;
11427;SDS011;5770;44.504;11.346;2023-11-21T06:31:29;50.70;;;39.95;;
11427;SDS011;5770;44.504;11.346;2023-11-21T06:33:57;52.97;;;41.08;;
11427;SDS011;5770;44.504;11.346;2023-11-21T06:36:25;52.92;;;41.17;;
11427;SDS011;5770;44.504;11.346;2023-11-21T06:38:53;52.45;;;40.22;;
11427;SDS011;5770;44.504;11.346;2023-11-21T06:41:20;48.40;;;41.10;;
11427;SDS011;5770;44.504;11.346;2023-11-21T06:43:48;52.33;;;41.33;;
11427;SDS011;5770;44.504;11.346;2023-11-21T06:46:20;50.85;;;41.10;;
11427;SDS011;5770;44.504;11.346;2023-11-21T06:48:47;49.47;;;39.97;;
11427;SDS011;5770;44.504;11.346;2023-11-21T06:51:14;59.83;;;40.17;;
11427;SDS011;5770;44.504;11.346;2023-11-21T06:53:41;50.50;;;40.40;;
11427;SDS011;5770;44.504;11.346;2023-11-21T06:56:15;48.97;;;39.58;;
11427;SDS011;5770;44.504;11.346;2023-11-21T06:58:45;56.55;;;41.53;;
11427;SDS011;5770;44.504;11.346;2023-11-21T07:01:13;52.63;;;41.78;;
11427;SDS011;5770;44.504;11.346;2023-11-21T07:03:41;56.13;;;42.45;;
11427;SDS011;5770;44.504;11.346;2023-11-21T07:06:08;58.80;;;42.55;;
11427;SDS011;5770;44.504;11.346;2023-11-21T07:08:36;52.60;;;41.65;;
11427;SDS011;5770;44.504;11.346;2023-11-21T07:11:03;52.88;;;42.08;;
11427;SDS011;5770;44.504;11.346;2023-11-21T07:13:31;50.38;;;41.28;;
11427;SDS011;5770;44.504;11.346;2023-11-21T07:15:58;51.65;;;42.53;;
11427;SDS011;5770;44.504;11.346;2023-11-21T07:18:27;55.65;;;42.05;;
11427;SDS011;5770;44.504;11.346;2023-11-21T07:20:54;50.17;;;41.42;;
11427;SDS011;5770;44.504;11.346;2023-11-21T07:23:23;53.40;;;39.85;;
11427;SDS011;5770;44.504;11.346;2023-11-21T07:25:51;49.13;;;41.28;;
11427;SDS011;5770;44.504;11.346;2023-11-21T07:28:18;51.10;;;40.63;;
11427;SDS011;5770;44.504;11.346;2023-11-21T07:30:45;51.10;;;40.38;;
11427;SDS011;5770;44.504;11.346;2023-11-21T07:33:13;51.50;;;41.75;;
11427;SDS011;5770;44.504;11.346;2023-11-21T07:35:41;51.83;;;41.33;;
11427;SDS011;5770;44.504;11.346;2023-11-21T07:38:08;52.70;;;40.85;;
11427;SDS011;5770;44.504;11.346;2023-11-21T07:40:36;54.50;;;42.60;;
11427;SDS011;5770;44.504;11.346;2023-11-21T07:43:03;55.65;;;43.58;;
11427;SDS011;5770;44.504;11.346;2023-11-21T07:45:30;54.50;;;42.13;;
11427;SDS011;5770;44.504;11.346;2023-11-21T07:47:58;56.38;;;44.50;;
11427;SDS011;5770;44.504;11.346;2023-11-21T07:50:25;54.22;;;43.30;;
11427;SDS011;5770;44.504;11.346;2023-11-21T07:52:54;59.95;;;44.70;;
11427;SDS011;5770;44.504;11.346;2023-11-21T07:55:21;56.70;;;44.15;;
11427;SDS011;5770;44.504;11.346;2023-11-21T07:57:50;54.92;;;45.45;;
11427;SDS011;5770;44.504;11.346;2023-11-21T08:00:17;61.72;;;46.53;;
11427;SDS011;5770;44.504;11.346;2023-11-21T08:02:46;62.67;;;47.47;;
11427;SDS011;5770;44.504;11.346;2023-11-21T08:05:13;63.33;;;48.83;;
11427;SDS011;5770;44.504;11.346;2023-11-21T08:07:40;61.90;;;46.70;;
11427;SDS011;5770;44.504;11.346;2023-11-21T08:10:09;54.60;;;44.45;;
11427;SDS011;5770;44.504;11.346;2023-11-21T08:12:37;60.25;;;46.63;;
11427;SDS011;5770;44.504;11.346;2023-11-21T08:15:05;69.35;;;48.63;;
11427;SDS011;5770;44.504;11.346;2023-11-21T08:17:32;64.50;;;48.30;;
11427;SDS011;5770;44.504;11.346;2023-11-21T08:20:00;58.75;;;48.42;;
11427;SDS011;5770;44.504;11.346;2023-11-21T08:22:28;59.05;;;47.53;;
11427;SDS011;5770;44.504;11.346;2023-11-21T08:24:56;68.63;;;49.88;;
11427;SDS011;5770;44.504;11.346;2023-11-21T08:27:25;69.75;;;51.58;;
11427;SDS011;5770;44.504;11.346;2023-11-21T08:29:52;66.60;;;48.63;;
11427;SDS011;5770;44.504;11.346;2023-11-21T08:32:19;67.68;;;52.10;;
11427;SDS011;5770;44.504;11.346;2023-11-21T08:34:47;64.75;;;51.50;;
11427;SDS011;5770;44.504;11.346;2023-11-21T08:37:15;61.35;;;49.63;;
11427;SDS011;5770;44.504;11.346;2023-11-21T08:39:43;59.63;;;50.55;;
11427;SDS011;5770;44.504;11.346;2023-11-21T08:42:10;63.95;;;52.47;;
11427;SDS011;5770;44.504;11.346;2023-11-21T08:44:39;71.47;;;52.58;;
11427;SDS011;5770;44.504;11.346;2023-11-21T08:47:06;68.63;;;53.95;;
11427;SDS011;5770;44.504;11.346;2023-11-21T08:49:34;73.40;;;55.22;;
11427;SDS011;5770;44.504;11.346;2023-11-21T08:52:01;71.43;;;55.50;;
11427;SDS011;5770;44.504;11.346;2023-11-21T08:54:30;78.47;;;58.20;;
11427;SDS011;5770;44.504;11.346;2023-11-21T08:56:57;76.72;;;62.60;;
11427;SDS011;5770;44.504;11.346;2023-11-21T08:59:25;76.07;;;61.05;;
11427;SDS011;5770;44.504;11.346;2023-11-21T09:01:53;78.15;;;61.67;;
11427;SDS011;5770;44.504;11.346;2023-11-21T09:04:21;75.80;;;62.28;;
11427;SDS011;5770;44.504;11.346;2023-11-21T09:06:48;77.82;;;64.35;;
11427;SDS011;5770;44.504;11.346;2023-11-21T09:09:15;83.78;;;65.38;;
11427;SDS011;5770;44.504;11.346;2023-11-21T09:11:44;83.95;;;66.40;;
11427;SDS011;5770;44.504;11.346;2023-11-21T09:14:14;80.80;;;64.88;;
11427;SDS011;5770;44.504;11.346;2023-11-21T09:16:43;84.10;;;69.18;;
11427;SDS011;5770;44.504;11.346;2023-11-21T09:19:12;81.30;;;66.13;;
11427;SDS011;5770;44.504;11.346;2023-11-21T09:21:40;82.25;;;67.65;;
11427;SDS011;5770;44.504;11.346;2023-11-21T09:24:07;90.82;;;70.55;;
11427;SDS011;5770;44.504;11.346;2023-11-21T09:26:35;84.07;;;68.85;;
11427;SDS011;5770;44.504;11.346;2023-11-21T09:29:02;87.15;;;70.07;;
11427;SDS011;5770;44.504;11.346;2023-11-21T09:31:29;83.68;;;68.72;;
11427;SDS011;5770;44.504;11.346;2023-11-21T09:33:58;90.00;;;70.82;;
11427;SDS011;5770;44.504;11.346;2023-11-21T09:36:28;87.15;;;70.35;;
11427;SDS011;5770;44.504;11.346;2023-11-21T09:38:55;87.00;;;69.18;;
11427;SDS011;5770;44.504;11.346;2023-11-21T09:41:25;87.07;;;66.68;;
11427;SDS011;5770;44.504;11.346;2023-11-21T09:43:54;83.20;;;67.80;;
11427;SDS011;5770;44.504;11.346;2023-11-21T09:46:25;83.75;;;68.15;;
11427;SDS011;5770;44.504;11.346;2023-11-21T09:48:55;86.93;;;69.93;;
11427;SDS011;5770;44.504;11.346;2023-11-21T09:51:24;88.80;;;69.05;;
11427;SDS011;5770;44.504;11.346;2023-11-21T09:53:56;86.57;;;69.00;;
11427;SDS011;5770;44.504;11.346;2023-11-21T09:56:24;87.47;;;69.10;;
11427;SDS011;5770;44.504;11.346;2023-11-21T09:58:52;85.28;;;67.75;;
11427;SDS011;5770;44.504;11.346;2023-11-21T10:01:21;85.82;;;67.38;;
11427;SDS011;5770;44.504;11.346;2023-11-21T10:03:50;84.35;;;66.93;;
11427;SDS011;5770;44.504;11.346;2023-11-21T10:06:17;86.32;;;69.07;;
11427;SDS011;5770;44.504;11.346;2023-11-21T10:08:45;83.72;;;68.13;;
11427;SDS011;5770;44.504;11.346;2023-11-21T10:11:14;83.55;;;66.00;;
11427;SDS011;5770;44.504;11.346;2023-11-21T10:13:41;83.13;;;66.57;;
11427;SDS011;5770;44.504;11.346;2023-11-21T10:16:11;80.68;;;64.95;;
11427;SDS011;5770;44.504;11.346;2023-11-21T10:18:41;81.10;;;68.70;;
11427;SDS011;5770;44.504;11.346;2023-11-21T10:21:11;86.60;;;68.60;;
11427;SDS011;5770;44.504;11.346;2023-11-21T10:23:38;89.45;;;69.45;;
11427;SDS011;5770;44.504;11.346;2023-11-21T10:26:06;87.43;;;68.72;;
11427;SDS011;5770;44.504;11.346;2023-11-21T10:28:36;93.35;;;71.95;;
11427;SDS011;5770;44.504;11.346;2023-11-21T10:31:06;93.85;;;73.43;;
11427;SDS011;5770;44.504;11.346;2023-11-21T10:33:34;96.05;;;72.63;;
11427;SDS011;5770;44.504;11.346;2023-11-21T10:36:01;87.95;;;72.82;;
11427;SDS011;5770;44.504;11.346;2023-11-21T10:38:28;93.07;;;75.40;;
11427;SDS011;5770;44.504;11.346;2023-11-21T10:41:02;95.85;;;74.45;;
11427;SDS011;5770;44.504;11.346;2023-11-21T10:43:32;96.68;;;77.93;;
11427;SDS011;5770;44.504;11.346;2023-11-21T10:46:01;101.03;;;78.78;;
11427;SDS011;5770;44.504;11.346;2023-11-21T10:48:28;105.30;;;76.63;;
11427;SDS011;5770;44.504;11.346;2023-11-21T10:50:55;89.22;;;70.10;;
11427;SDS011;5770;44.504;11.346;2023-11-21T10:53:23;86.03;;;68.40;;
11427;SDS011;5770;44.504;11.346;2023-11-21T10:55:50;96.55;;;71.50;;
11427;SDS011;5770;44.504;11.346;2023-11-21T10:58:27;93.55;;;70.50;;
11427;SDS011;5770;44.504;11.346;2023-11-21T11:00:54;92.28;;;68.07;;
11427;SDS011;5770;44.504;11.346;2023-11-21T11:03:23;87.38;;;65.57;;
11427;SDS011;5770;44.504;11.346;2023-11-21T11:05:51;89.53;;;65.18;;
11427;SDS011;5770;44.504;11.346;2023-11-21T11:08:20;92.53;;;65.65;;
11427;SDS011;5770;44.504;11.346;2023-11-21T11:10:51;86.43;;;62.10;;
11427;SDS011;5770;44.504;11.346;2023-11-21T11:13:18;89.47;;;63.00;;
11427;SDS011;5770;44.504;11.346;2023-11-21T11:15:47;84.85;;;60.92;;
11427;SDS011;5770;44.504;11.346;2023-11-21T11:18:14;83.30;;;60.47;;
11427;SDS011;5770;44.504;11.346;2023-11-21T11:20:44;85.43;;;58.88;;
11427;SDS011;5770;44.504;11.346;2023-11-21T11:23:19;76.93;;;57.17;;
11427;SDS011;5770;44.504;11.346;2023-11-21T11:26:04;78.18;;;57.08;;
11427;SDS011;5770;44.504;11.346;2023-11-21T11:28:35;79.07;;;59.38;;
11427;SDS011;5770;44.504;11.346;2023-11-21T11:31:05;80.95;;;57.13;;
11427;SDS011;5770;44.504;11.346;2023-11-21T11:33:42;80.63;;;56.22;;
11427;SDS011;5770;44.504;11.346;2023-11-21T11:36:13;75.78;;;55.70;;
11427;SDS011;5770;44.504;11.346;2023-11-21T11:38:45;73.32;;;53.88;;
11427;SDS011;5770;44.504;11.346;2023-11-21T11:41:15;74.13;;;53.25;;
11427;SDS011;5770;44.504;11.346;2023-11-21T11:43:50;71.68;;;52.00;;
11427;SDS011;5770;44.504;11.346;2023-11-21T11:46:18;67.78;;;51.30;;
11427;SDS011;5770;44.504;11.346;2023-11-21T11:48:46;79.47;;;53.65;;
11427;SDS011;5770;44.504;11.346;2023-11-21T11:51:16;72.18;;;50.75;;
11427;SDS011;5770;44.504;11.346;2023-11-21T11:53:45;67.82;;;46.90;;
11427;SDS011;5770;44.504;11.346;2023-11-21T11:56:23;63.88;;;46.70;;
11427;SDS011;5770;44.504;11.346;2023-11-21T11:58:52;69.32;;;47.88;;
11427;SDS011;5770;44.504;11.346;2023-11-21T12:01:20;64.88;;;47.10;;
11427;SDS011;5770;44.504;11.346;2023-11-21T12:06:34;69.00;;;48.50;;
11427;SDS011;5770;44.504;11.346;2023-11-21T12:09:01;70.63;;;48.95;;
11427;SDS011;5770;44.504;11.346;2023-11-21T12:11:30;67.90;;;47.05;;
11427;SDS011;5770;44.504;11.346;2023-11-21T12:13:58;71.32;;;48.35;;
11427;SDS011;5770;44.504;11.346;2023-11-21T12:16:26;71.65;;;48.65;;
11427;SDS011;5770;44.504;11.346;2023-11-21T12:18:53;70.72;;;48.78;;
11427;SDS011;5770;44.504;11.346;2023-11-21T12:21:20;78.45;;;52.20;;
11427;SDS011;5770;44.504;11.346;2023-11-21T12:23:50;73.85;;;48.55;;
11427;SDS011;5770;44.504;11.346;2023-11-21T12:26:17;70.32;;;48.45;;
11427;SDS011;5770;44.504;11.346;2023-11-21T12:28:51;69.28;;;46.38;;
11427;SDS011;5770;44.504;11.346;2023-11-21T12:31:20;73.25;;;48.33;;
11427;SDS011;5770;44.504;11.346;2023-11-21T12:33:47;67.88;;;45.63;;
11427;SDS011;5770;44.504;11.346;2023-11-21T12:36:15;66.55;;;46.88;;
11427;SDS011;5770;44.504;11.346;2023-11-21T12:38:43;73.75;;;47.03;;
11427;SDS011;5770;44.504;11.346;2023-11-21T12:41:12;72.03;;;48.20;;
11427;SDS011;5770;44.504;11.346;2023-11-21T12:43:42;68.38;;;48.50;;
11427;SDS011;5770;44.504;11.346;2023-11-21T12:46:09;75.43;;;49.28;;
11427;SDS011;5770;44.504;11.346;2023-11-21T12:48:41;78.03;;;50.83;;
11427;SDS011;5770;44.504;11.346;2023-11-21T12:51:09;66.45;;;48.58;;
11427;SDS011;5770;44.504;11.346;2023-11-21T12:53:39;67.13;;;47.55;;
11427;SDS011;5770;44.504;11.346;2023-11-21T12:56:07;63.60;;;47.40;;
11427;SDS011;5770;44.504;11.346;2023-11-21T12:58:36;64.40;;;49.45;;
11427;SDS011;5770;44.504;11.346;2023-11-21T13:01:04;66.53;;;48.42;;
11427;SDS011;5770;44.504;11.346;2023-11-21T13:03:37;62.80;;;46.00;;
11427;SDS011;5770;44.504;11.346;2023-11-21T13:06:05;64.80;;;46.80;;
11427;SDS011;5770;44.504;11.346;2023-11-21T13:08:33;63.22;;;47.30;;
11427;SDS011;5770;44.504;11.346;2023-11-21T13:11:04;63.53;;;46.20;;
11427;SDS011;5770;44.504;11.346;2023-11-21T13:13:32;61.70;;;47.00;;
11427;SDS011;5770;44.504;11.346;2023-11-21T13:16:01;66.15;;;46.97;;
11427;SDS011;5770;44.504;11.346;2023-11-21T13:18:30;62.47;;;48.08;;
11427;SDS011;5770;44.504;11.346;2023-11-21T13:20:58;65.32;;;49.03;;
11427;SDS011;5770;44.504;11.346;2023-11-21T13:23:34;70.10;;;51.20;;
11427;SDS011;5770;44.504;11.346;2023-11-21T13:26:02;62.53;;;47.13;;
11427;SDS011;5770;44.504;11.346;2023-11-21T13:28:32;60.92;;;47.33;;
11427;SDS011;5770;44.504;11.346;2023-11-21T13:31:01;65.30;;;47.45;;
11427;SDS011;5770;44.504;11.346;2023-11-21T13:33:34;60.30;;;46.60;;
11427;SDS011;5770;44.504;11.346;2023-11-21T13:36:03;63.45;;;47.20;;
11427;SDS011;5770;44.504;11.346;2023-11-21T13:38:32;64.63;;;46.88;;
11427;SDS011;5770;44.504;11.346;2023-11-21T13:41:01;64.70;;;46.55;;
11427;SDS011;5770;44.504;11.346;2023-11-21T13:43:32;65.65;;;47.33;;
11427;SDS011;5770;44.504;11.346;2023-11-21T13:46:01;63.72;;;46.55;;
11427;SDS011;5770;44.504;11.346;2023-11-21T13:48:35;68.57;;;49.33;;
11427;SDS011;5770;44.504;11.346;2023-11-21T13:51:07;64.68;;;47.30;;
11427;SDS011;5770;44.504;11.346;2023-11-21T13:53:41;65.38;;;48.53;;
11427;SDS011;5770;44.504;11.346;2023-11-21T13:56:08;72.03;;;50.15;;
11427;SDS011;5770;44.504;11.346;2023-11-21T13:58:36;62.72;;;46.65;;
11427;SDS011;5770;44.504;11.346;2023-11-21T14:01:11;65.53;;;47.65;;
11427;SDS011;5770;44.504;11.346;2023-11-21T14:03:57;64.70;;;47.10;;
11427;SDS011;5770;44.504;11.346;2023-11-21T14:06:33;70.13;;;48.75;;
11427;SDS011;5770;44.504;11.346;2023-11-21T14:09:10;67.88;;;47.65;;
11427;SDS011;5770;44.504;11.346;2023-11-21T14:11:43;66.60;;;48.22;;
11427;SDS011;5770;44.504;11.346;2023-11-21T14:14:10;67.13;;;47.78;;
11427;SDS011;5770;44.504;11.346;2023-11-21T14:16:38;70.25;;;49.25;;
11427;SDS011;5770;44.504;11.346;2023-11-21T14:19:07;73.13;;;49.72;;
11427;SDS011;5770;44.504;11.346;2023-11-21T14:21:41;68.78;;;48.70;;
11427;SDS011;5770;44.504;11.346;2023-11-21T14:24:09;67.93;;;48.50;;
11427;SDS011;5770;44.504;11.346;2023-11-21T14:26:38;73.45;;;50.55;;
11427;SDS011;5770;44.504;11.346;2023-11-21T14:29:05;69.97;;;48.95;;
11427;SDS011;5770;44.504;11.346;2023-11-21T14:31:33;67.72;;;50.05;;